Raymond Croze — FNWX — position and weather

sailwx.info

Track history (hours):
 
Tides and Currents Weather Stations Pressure Air Temp Water Temp Dewpoint Dewpoint Depression Visibility Wind Speed Wind Dir Waves Ship Positions

Raymond Croze

Last reported at 2016-May-20 08:21 UTC. Time now 2016-May-24 19:37 UTC.
Position N 36°16' E 023°53'.

Length 107 m; beam 18 m.

Type: Ship. MMSI: 226290000.

Date/timePositionNaut miles runAvg speedWind from/ knotsBaromVisibWave heightAir tempDewpointWater temp
2016-May-20 08:21N 36°16' E 023°53'42810.4
2016-May-18 15:19N 37°30' E 015°06'26 9.0
2016-May-18 12:26N 37°50' E 015°25'1011.5
2016-May-18 11:33N 37°59' E 015°32'1212.1
2016-May-18 10:34N 38°11' E 015°35'9 8.7
2016-May-18 09:33N 38°19' E 015°38'1212.0
2016-May-18 08:34N 38°20' E 015°22'1312.7
2016-May-18 07:33N 38°20' E 015°06'1312.7
2016-May-18 06:32N 38°20' E 014°50'4012.8
2016-May-18 03:25N 38°26' E 013°59'1112.8
2016-May-18 02:34N 38°28' E 013°46'1312.8
2016-May-18 01:33N 38°30' E 013°29'1312.9
2016-May-18 00:34N 38°32' E 013°13'1312.8
2016-May-17 23:33N 38°34' E 012°57'1312.8
2016-May-17 22:34N 38°36' E 012°41'15813.0
2016-May-17 10:23N 38°60' E 009°21'3 4.0
2016-May-17 09:33N 39°01' E 009°17'0 0.1
2016-May-17 08:33N 39°01' E 009°17'0 0.3
2016-May-17 07:33N 39°01' E 009°17'0 0.2
2016-May-17 06:31N 39°01' E 009°17'0 0.4
2016-May-17 05:30N 39°01' E 009°18'0 0.4
2016-May-17 04:32N 39°00' E 009°18'0 0.3
2016-May-17 03:33N 39°00' E 009°18'0 0.1
2016-May-17 02:30N 39°00' E 009°18'0 0.2
2016-May-17 01:33N 39°00' E 009°19'0 0.3
2016-May-17 00:33N 39°00' E 009°19'0 0.2
2016-May-16 23:33N 38°60' E 009°19'1 0.7
2016-May-16 22:32N 39°00' E 009°18'1 0.9
2016-May-16 21:34N 39°01' E 009°17'1 0.6
2016-May-16 20:33N 39°01' E 009°17'0 0.1
2016-May-16 19:33N 39°01' E 009°17'0 0.2
2016-May-16 18:32N 39°01' E 009°17'0 0.1
2016-May-16 17:33N 39°01' E 009°17'0 0.1
2016-May-16 16:33N 39°01' E 009°17'0 0.1
2016-May-16 15:34N 39°01' E 009°17'0 0.1
2016-May-16 14:32N 39°01' E 009°17'0 0.1
2016-May-16 13:33N 39°01' E 009°17'0 0.1
2016-May-16 12:33N 39°01' E 009°17'0 0.1
2016-May-16 11:33N 39°01' E 009°18'0 0.1
2016-May-16 10:33N 39°01' E 009°18'1 0.5
2016-May-16 09:33N 39°00' E 009°18'0 0.1
2016-May-16 08:33N 39°00' E 009°18'0 0.1
2016-May-16 07:33N 39°00' E 009°19'0 0.1
2016-May-16 06:32N 39°00' E 009°19'0 0.1
2016-May-16 05:33N 39°00' E 009°19'0 0.1
2016-May-16 04:32N 38°60' E 009°19'0 0.1
2016-May-16 03:32N 38°60' E 009°19'0 0.1
2016-May-16 02:33N 38°60' E 009°19'0 0.4
2016-May-16 01:32N 39°00' E 009°19'0 0.4
2016-May-16 00:33N 39°00' E 009°18'1 0.7
2016-May-15 23:32N 39°01' E 009°18'0 0.5
2016-May-15 22:32N 39°01' E 009°17'0 0.0
2016-May-15 21:33N 39°01' E 009°17'0 0.1
2016-May-15 20:33N 39°01' E 009°18'0 0.0
2016-May-15 19:33N 39°01' E 009°18'0 0.1
2016-May-15 18:33N 39°01' E 009°17'0 0.2
2016-May-15 17:33N 39°01' E 009°17'0 0.2
2016-May-15 16:33N 39°01' E 009°17'0 0.0
2016-May-15 15:33N 39°01' E 009°17'0 0.0
2016-May-15 14:32N 39°01' E 009°17'0 0.0
2016-May-15 13:33N 39°01' E 009°17'0 0.0
2016-May-15 12:33N 39°01' E 009°17'0 0.0
2016-May-15 11:33N 39°01' E 009°17'0 0.0
2016-May-15 10:32N 39°01' E 009°17'0 0.0
2016-May-15 09:33N 39°01' E 009°17'0 0.0
2016-May-15 08:32N 39°01' E 009°17'0 0.0
2016-May-15 07:33N 39°01' E 009°17'0 0.0
2016-May-15 06:32N 39°01' E 009°17'0 0.0
2016-May-15 05:33N 39°01' E 009°17'0 0.0
2016-May-15 04:32N 39°01' E 009°17'0 0.0
2016-May-15 03:32N 39°01' E 009°17'0 0.0
2016-May-15 02:32N 39°01' E 009°17'0 0.0
2016-May-15 01:33N 39°01' E 009°17'0 0.0
2016-May-15 00:33N 39°01' E 009°17'0 0.0
2016-May-14 23:34N 39°01' E 009°17'0 0.3
2016-May-14 22:33N 39°01' E 009°17'0 0.3
2016-May-14 21:33N 39°01' E 009°18'1 0.6
2016-May-14 20:33N 39°00' E 009°18'0 0.4
2016-May-14 19:33N 39°00' E 009°19'0 0.0
2016-May-14 18:33N 39°00' E 009°19'0 0.0
2016-May-14 17:33N 39°00' E 009°19'0 0.0
2016-May-14 16:33N 39°00' E 009°19'0 0.0
2016-May-14 15:33N 39°00' E 009°19'0 0.0
2016-May-14 14:33N 39°00' E 009°19'0 0.0
2016-May-14 13:33N 39°00' E 009°19'0 0.0
2016-May-14 12:32N 39°00' E 009°19'0 0.0
2016-May-14 11:33N 39°00' E 009°19'0 0.0
2016-May-14 10:33N 39°00' E 009°19'0 0.0
2016-May-14 09:33N 39°00' E 009°19'0 0.0
2016-May-14 08:33N 39°00' E 009°19'0 0.0
2016-May-14 07:33N 39°00' E 009°19'0 0.0
2016-May-14 06:34N 39°00' E 009°19'0 0.0
2016-May-14 05:33N 39°00' E 009°19'0 0.0
2016-May-14 04:33N 39°00' E 009°19'0 0.0
2016-May-14 03:33N 39°00' E 009°19'0 0.0
2016-May-14 02:33N 39°00' E 009°19'0 0.0
2016-May-14 01:32N 39°00' E 009°19'0 0.0
2016-May-14 00:33N 39°00' E 009°19'0 0.0
2016-May-13 23:33N 39°00' E 009°19'0 0.1
2016-May-13 22:33N 39°00' E 009°19'0 0.1
2016-May-13 21:34N 39°00' E 009°19'0 0.4
2016-May-13 20:33N 39°01' E 009°19'0 0.2
2016-May-13 19:33N 39°00' E 009°19'0 0.4
2016-May-13 18:33N 39°00' E 009°18'1 0.7
2016-May-13 17:33N 39°01' E 009°18'0 0.2
2016-May-13 16:33N 39°01' E 009°17'0 0.4
2016-May-13 15:33N 39°01' E 009°17'0 0.2
2016-May-13 14:33N 39°01' E 009°17'0 0.1
2016-May-13 13:33N 39°01' E 009°17'0 0.0
2016-May-13 12:32N 39°01' E 009°17'0 0.2
2016-May-13 11:33N 39°01' E 009°17'0 0.1
2016-May-13 10:33N 39°01' E 009°17'0 0.0
2016-May-13 09:33N 39°01' E 009°17'0 0.3
2016-May-13 08:33N 39°01' E 009°18'0 0.2
2016-May-13 07:32N 39°01' E 009°18'1 0.6
2016-May-13 06:33N 39°01' E 009°17'1 1.1
2016-May-13 05:32N 39°00' E 009°19'0 0.0
2016-May-13 04:32N 39°00' E 009°19'0 0.0
2016-May-13 03:32N 39°00' E 009°19'1 0.8
2016-May-13 02:33N 39°01' E 009°18'0 0.2
2016-May-13 01:32N 39°01' E 009°18'0 0.2
2016-May-13 00:33N 39°01' E 009°17'0 0.1
2016-May-12 23:32N 39°01' E 009°17'0 0.1
2016-May-12 22:33N 39°01' E 009°17'0 0.2
2016-May-12 21:33N 39°01' E 009°17'0 0.0
2016-May-12 20:33N 39°01' E 009°17'0 0.3
2016-May-12 19:32N 39°01' E 009°17'10 9.2
2016-May-12 18:27N 38°58' E 009°30'17012.2
2016-May-12 04:30N 38°33' E 013°05'1212.4
2016-May-12 03:33N 38°30' E 013°20'6312.4
2016-May-11 22:29N 38°22' E 014°39'1312.4
2016-May-11 21:25N 38°20' E 014°55'1112.3
2016-May-11 20:33N 38°20' E 015°09'1212.3
2016-May-11 19:33N 38°20' E 015°25'1312.5
2016-May-11 18:33N 38°19' E 015°41'1010.5
2016-May-11 17:33N 38°09' E 015°36'1211.6
2016-May-11 16:34N 37°58' E 015°33'16 1.2
2016-May-11 03:26N 37°44' E 015°21'1011.7
2016-May-11 02:33N 37°53' E 015°27'1211.9
2016-May-11 01:33N 38°04' E 015°33'1111.5
2016-May-11 00:33N 38°15' E 015°38'9 9.1
2016-May-10 23:34N 38°22' E 015°31'1211.8
2016-May-10 22:33N 38°29' E 015°18'1311.9
2016-May-10 21:29N 38°35' E 015°04'7312.1
2016-May-10 15:28N 39°15' E 013°46'1712.5
2016-May-10 14:07N 39°24' E 013°27'712.3
2016-May-10 13:32N 39°28' E 013°20'1312.4
2016-May-10 12:28N 39°35' E 013°05'  
Track history (hours):
 
Tides and Currents Weather Stations Pressure Air Temp Water Temp Dewpoint Dewpoint Depression Visibility Wind Speed Wind Dir Waves Ship Positions

Raymond Croze

Last reported at 2016-May-20 08:21 UTC. Time now 2016-May-24 19:37 UTC.
Position N 36°16' E 023°53'.

Length 107 m; beam 18 m.

Type: Ship. MMSI: 226290000.

Date/timePositionNaut miles runAvg speedWind from/ knotsBaromVisibWave heightAir tempDewpointWater temp
2016-May-20 08:21N 36°16' E 023°53'42810.4
2016-May-18 15:19N 37°30' E 015°06'26 9.0
2016-May-18 12:26N 37°50' E 015°25'1011.5
2016-May-18 11:33N 37°59' E 015°32'1212.1
2016-May-18 10:34N 38°11' E 015°35'9 8.7
2016-May-18 09:33N 38°19' E 015°38'1212.0
2016-May-18 08:34N 38°20' E 015°22'1312.7
2016-May-18 07:33N 38°20' E 015°06'1312.7
2016-May-18 06:32N 38°20' E 014°50'4012.8
2016-May-18 03:25N 38°26' E 013°59'1112.8
2016-May-18 02:34N 38°28' E 013°46'1312.8
2016-May-18 01:33N 38°30' E 013°29'1312.9
2016-May-18 00:34N 38°32' E 013°13'1312.8
2016-May-17 23:33N 38°34' E 012°57'1312.8
2016-May-17 22:34N 38°36' E 012°41'15813.0
2016-May-17 10:23N 38°60' E 009°21'3 4.0
2016-May-17 09:33N 39°01' E 009°17'0 0.1
2016-May-17 08:33N 39°01' E 009°17'0 0.3
2016-May-17 07:33N 39°01' E 009°17'0 0.2
2016-May-17 06:31N 39°01' E 009°17'0 0.4
2016-May-17 05:30N 39°01' E 009°18'0 0.4
2016-May-17 04:32N 39°00' E 009°18'0 0.3
2016-May-17 03:33N 39°00' E 009°18'0 0.1
2016-May-17 02:30N 39°00' E 009°18'0 0.2
2016-May-17 01:33N 39°00' E 009°19'0 0.3
2016-May-17 00:33N 39°00' E 009°19'0 0.2
2016-May-16 23:33N 38°60' E 009°19'1 0.7
2016-May-16 22:32N 39°00' E 009°18'1 0.9
2016-May-16 21:34N 39°01' E 009°17'1 0.6
2016-May-16 20:33N 39°01' E 009°17'0 0.1
2016-May-16 19:33N 39°01' E 009°17'0 0.2
2016-May-16 18:32N 39°01' E 009°17'0 0.1
2016-May-16 17:33N 39°01' E 009°17'0 0.1
2016-May-16 16:33N 39°01' E 009°17'0 0.1
2016-May-16 15:34N 39°01' E 009°17'0 0.1
2016-May-16 14:32N 39°01' E 009°17'0 0.1
2016-May-16 13:33N 39°01' E 009°17'0 0.1
2016-May-16 12:33N 39°01' E 009°17'0 0.1
2016-May-16 11:33N 39°01' E 009°18'0 0.1
2016-May-16 10:33N 39°01' E 009°18'1 0.5
2016-May-16 09:33N 39°00' E 009°18'0 0.1
2016-May-16 08:33N 39°00' E 009°18'0 0.1
2016-May-16 07:33N 39°00' E 009°19'0 0.1
2016-May-16 06:32N 39°00' E 009°19'0 0.1
2016-May-16 05:33N 39°00' E 009°19'0 0.1
2016-May-16 04:32N 38°60' E 009°19'0 0.1
2016-May-16 03:32N 38°60' E 009°19'0 0.1
2016-May-16 02:33N 38°60' E 009°19'0 0.4
2016-May-16 01:32N 39°00' E 009°19'0 0.4
2016-May-16 00:33N 39°00' E 009°18'1 0.7
2016-May-15 23:32N 39°01' E 009°18'0 0.5
2016-May-15 22:32N 39°01' E 009°17'0 0.0
2016-May-15 21:33N 39°01' E 009°17'0 0.1
2016-May-15 20:33N 39°01' E 009°18'0 0.0
2016-May-15 19:33N 39°01' E 009°18'0 0.1
2016-May-15 18:33N 39°01' E 009°17'0 0.2
2016-May-15 17:33N 39°01' E 009°17'0 0.2
2016-May-15 16:33N 39°01' E 009°17'0 0.0
2016-May-15 15:33N 39°01' E 009°17'0 0.0
2016-May-15 14:32N 39°01' E 009°17'0 0.0
2016-May-15 13:33N 39°01' E 009°17'0 0.0
2016-May-15 12:33N 39°01' E 009°17'0 0.0
2016-May-15 11:33N 39°01' E 009°17'0 0.0
2016-May-15 10:32N 39°01' E 009°17'0 0.0
2016-May-15 09:33N 39°01' E 009°17'0 0.0
2016-May-15 08:32N 39°01' E 009°17'0 0.0
2016-May-15 07:33N 39°01' E 009°17'0 0.0
2016-May-15 06:32N 39°01' E 009°17'0 0.0
2016-May-15 05:33N 39°01' E 009°17'0 0.0
2016-May-15 04:32N 39°01' E 009°17'0 0.0
2016-May-15 03:32N 39°01' E 009°17'0 0.0
2016-May-15 02:32N 39°01' E 009°17'0 0.0
2016-May-15 01:33N 39°01' E 009°17'0 0.0
2016-May-15 00:33N 39°01' E 009°17'0 0.0
2016-May-14 23:34N 39°01' E 009°17'0 0.3
2016-May-14 22:33N 39°01' E 009°17'0 0.3
2016-May-14 21:33N 39°01' E 009°18'1 0.6
2016-May-14 20:33N 39°00' E 009°18'0 0.4
2016-May-14 19:33N 39°00' E 009°19'0 0.0
2016-May-14 18:33N 39°00' E 009°19'0 0.0
2016-May-14 17:33N 39°00' E 009°19'0 0.0
2016-May-14 16:33N 39°00' E 009°19'0 0.0
2016-May-14 15:33N 39°00' E 009°19'0 0.0
2016-May-14 14:33N 39°00' E 009°19'0 0.0
2016-May-14 13:33N 39°00' E 009°19'0 0.0
2016-May-14 12:32N 39°00' E 009°19'0 0.0
2016-May-14 11:33N 39°00' E 009°19'0 0.0
2016-May-14 10:33N 39°00' E 009°19'0 0.0
2016-May-14 09:33N 39°00' E 009°19'0 0.0
2016-May-14 08:33N 39°00' E 009°19'0 0.0
2016-May-14 07:33N 39°00' E 009°19'0 0.0
2016-May-14 06:34N 39°00' E 009°19'0 0.0
2016-May-14 05:33N 39°00' E 009°19'0 0.0
2016-May-14 04:33N 39°00' E 009°19'0 0.0
2016-May-14 03:33N 39°00' E 009°19'0 0.0
2016-May-14 02:33N 39°00' E 009°19'0 0.0
2016-May-14 01:32N 39°00' E 009°19'0 0.0
2016-May-14 00:33N 39°00' E 009°19'0 0.0
2016-May-13 23:33N 39°00' E 009°19'0 0.1
2016-May-13 22:33N 39°00' E 009°19'0 0.1
2016-May-13 21:34N 39°00' E 009°19'0 0.4
2016-May-13 20:33N 39°01' E 009°19'0 0.2
2016-May-13 19:33N 39°00' E 009°19'0 0.4
2016-May-13 18:33N 39°00' E 009°18'1 0.7
2016-May-13 17:33N 39°01' E 009°18'0 0.2
2016-May-13 16:33N 39°01' E 009°17'0 0.4
2016-May-13 15:33N 39°01' E 009°17'0 0.2
2016-May-13 14:33N 39°01' E 009°17'0 0.1
2016-May-13 13:33N 39°01' E 009°17'0 0.0
2016-May-13 12:32N 39°01' E 009°17'0 0.2
2016-May-13 11:33N 39°01' E 009°17'0 0.1
2016-May-13 10:33N 39°01' E 009°17'0 0.0
2016-May-13 09:33N 39°01' E 009°17'0 0.3
2016-May-13 08:33N 39°01' E 009°18'0 0.2
2016-May-13 07:32N 39°01' E 009°18'1 0.6
2016-May-13 06:33N 39°01' E 009°17'1 1.1
2016-May-13 05:32N 39°00' E 009°19'0 0.0
2016-May-13 04:32N 39°00' E 009°19'0 0.0
2016-May-13 03:32N 39°00' E 009°19'1 0.8
2016-May-13 02:33N 39°01' E 009°18'0 0.2
2016-May-13 01:32N 39°01' E 009°18'0 0.2
2016-May-13 00:33N 39°01' E 009°17'0 0.1
2016-May-12 23:32N 39°01' E 009°17'0 0.1
2016-May-12 22:33N 39°01' E 009°17'0 0.2
2016-May-12 21:33N 39°01' E 009°17'0 0.0
2016-May-12 20:33N 39°01' E 009°17'0 0.3
2016-May-12 19:32N 39°01' E 009°17'10 9.2
2016-May-12 18:27N 38°58' E 009°30'17012.2
2016-May-12 04:30N 38°33' E 013°05'1212.4
2016-May-12 03:33N 38°30' E 013°20'6312.4
2016-May-11 22:29N 38°22' E 014°39'1312.4
2016-May-11 21:25N 38°20' E 014°55'1112.3
2016-May-11 20:33N 38°20' E 015°09'1212.3
2016-May-11 19:33N 38°20' E 015°25'1312.5
2016-May-11 18:33N 38°19' E 015°41'1010.5
2016-May-11 17:33N 38°09' E 015°36'1211.6
2016-May-11 16:34N 37°58' E 015°33'16 1.2
2016-May-11 03:26N 37°44' E 015°21'1011.7
2016-May-11 02:33N 37°53' E 015°27'1211.9
2016-May-11 01:33N 38°04' E 015°33'1111.5
2016-May-11 00:33N 38°15' E 015°38'9 9.1
2016-May-10 23:34N 38°22' E 015°31'1211.8
2016-May-10 22:33N 38°29' E 015°18'1311.9
2016-May-10 21:29N 38°35' E 015°04'7312.1
2016-May-10 15:28N 39°15' E 013°46'1712.5
2016-May-10 14:07N 39°24' E 013°27'712.3
2016-May-10 13:32N 39°28' E 013°20'1312.4
2016-May-10 12:28N 39°35' E 013°05'  

Dump ship's entire track history